Mendoza, Texas
Current Conditions -  °F | °C
As of 10:45 AM on Thursday 30 Oct 2014 (Local Time) from KHYI Reporting Station
Broken Clouds Broken Clouds  
Wind Chill: 66°   Ceiling: 1500
Heat Index: 66°   Visibility: 10mi
Dew Point: 55°   Wind: 3mph
Humidity: 68%   Direction: 100°E
Pressure: 30.18"   Gusts: NA
Location:  29.8965°N, 97.6713°W
Report Text: KHYI 301545Z 10003KT 10SM BKN015 19/13 A3018
Loading
Personal Weather Stations






























Interactive Weather Map
Tropical Storm Tracking
New forecast layout! Learn more

10-Day Weather Forecast

Advertisements
Track Severe Weather on mobile